Time;durP1;ratioP1;P1;durP2;ratioP2;P2;SDS_P1;SDS_P2;PMS_P1;PMS_P2;Temp;Humidity;BMP_temperature;BMP_pressure;BME280_temperature;BME280_humidity;BME280_pressure;Samples;Min_cycle;Max_cycle;Signal;HPM_P1;HPM_P2
2023/05/28 00:02:19;;;;;;;;;;;16.30;80.90;;;;;;6095889;23;19909;-93
2023/05/28 00:04:45;;;;;;;;;;;16.30;80.20;;;;;;6071281;23;20532;-93
2023/05/28 00:07:10;;;;;;;;;;;16.30;80.20;;;;;;6070610;23;19909;-94
2023/05/28 00:09:36;;;;;;;;;;;16.40;80.20;;;;;;6070536;23;20563;-94
2023/05/28 00:12:02;;;;;;;;;;;16.30;80.30;;;;;;6070441;23;19957;-94
2023/05/28 00:14:28;;;;;;;;;;;16.30;80.40;;;;;;6046025;23;19909;-93
2023/05/28 00:16:54;;;;;;;;;;;16.30;81.20;;;;;;6070325;23;19905;-93
2023/05/28 00:19:21;;;;;;;;;;;16.30;80.40;;;;;;6071212;23;19914;-94
2023/05/28 00:21:47;;;;;;;;;;;17.50;81.30;;;;;;6071030;23;19909;-94
2023/05/28 00:24:13;;;;;;;;;;;16.30;80.60;;;;;;6070554;23;20319;-94
2023/05/28 00:26:38;;;;;;;;;;;16.30;80.70;;;;;;6070694;23;19984;-94
2023/05/28 00:29:04;;;;;;;;;;;16.30;80.60;;;;;;6070874;23;19920;-93
2023/05/28 00:31:29;;;;;;;;;;;16.30;80.60;;;;;;6070845;23;19906;-93
2023/05/28 00:33:56;;;;;;;;;;;16.30;80.70;;;;;;6071078;23;20437;-93
2023/05/28 00:36:22;;;;;;;;;;;16.30;80.70;;;;;;6070490;23;19905;-93
2023/05/28 00:38:48;;;;;;;;;;;16.30;80.60;;;;;;6070145;23;19905;-92
2023/05/28 00:41:18;;;;;;;;;;;16.30;80.60;;;;;;6069796;23;19937;-94
2023/05/28 00:43:43;;;;;;;;;;;16.30;80.60;;;;;;6070658;23;19984;-93
2023/05/28 00:46:10;;;;;;;;;;;16.30;80.60;;;;;;6071245;23;20501;-93
2023/05/28 00:48:36;;;;;;;;;;;16.20;80.60;;;;;;6070667;23;19932;-93
2023/05/28 00:51:01;;;;;;;;;;;16.20;80.60;;;;;;6070547;23;19909;-94
2023/05/28 00:53:27;;;;;;;;;;;16.20;80.60;;;;;;6070518;23;19916;-92
2023/05/28 00:55:53;;;;;;;;;;;16.30;80.70;;;;;;6070759;23;20332;-93
2023/05/28 00:58:19;;;;;;;;;;;16.30;80.60;;;;;;6070545;23;19999;-93
2023/05/28 01:00:45;;;;;;;;;;;16.30;80.60;;;;;;6071098;23;20338;-93
2023/05/28 01:03:14;;;;;;;;;;;16.20;80.50;;;;;;6078015;23;19937;-92
2023/05/28 01:05:39;;;;;;;;;;;16.20;80.50;;;;;;6096546;23;19936;-92
2023/05/28 01:08:06;;;;;;;;;;;16.20;80.50;;;;;;6097015;23;19980;-93
2023/05/28 01:10:32;;;;;;;;;;;16.20;80.40;;;;;;6095732;23;20243;-93
2023/05/28 01:12:58;;;;;;;;;;;16.20;80.50;;;;;;6097074;23;19905;-92
2023/05/28 01:15:24;;;;;;;;;;;16.20;80.40;;;;;;6097194;23;19909;-92
2023/05/28 01:17:52;;;;;;;;;;;16.20;80.40;;;;;;6098640;23;19912;-93
2023/05/28 01:20:17;;;;;;;;;;;16.30;80.50;;;;;;6098295;23;19953;-93
2023/05/28 01:22:50;;;;;;;;;;;16.20;80.40;;;;;;6074331;23;19909;-92
2023/05/28 01:25:17;;;;;;;;;;;16.20;80.40;;;;;;6134680;23;19921;-89
2023/05/28 01:27:42;;;;;;;;;;;16.10;80.20;;;;;;6156370;23;19919;-89
2023/05/28 01:30:12;;;;;;;;;;;16.10;80.20;;;;;;6156502;23;19909;-90
2023/05/28 01:32:38;;;;;;;;;;;16.20;80.30;;;;;;6157881;23;19905;-90
2023/05/28 01:35:04;;;;;;;;;;;16.20;80.20;;;;;;6156682;23;19956;-90
2023/05/28 01:37:33;;;;;;;;;;;16.10;80.20;;;;;;6156260;23;20358;-89
2023/05/28 01:39:59;;;;;;;;;;;16.20;80.30;;;;;;6155283;23;19912;-90
2023/05/28 01:42:25;;;;;;;;;;;16.10;80.20;;;;;;6155374;23;19979;-89
2023/05/28 01:44:51;;;;;;;;;;;16.20;80.20;;;;;;6154980;23;19929;-89
2023/05/28 01:47:17;;;;;;;;;;;16.10;80.20;;;;;;6155140;23;19905;-90
2023/05/28 01:49:42;;;;;;;;;;;16.10;80.10;;;;;;6154596;23;19904;-89
2023/05/28 01:52:08;;;;;;;;;;;16.10;80.20;;;;;;6154834;23;20469;-90
2023/05/28 01:54:34;;;;;;;;;;;16.10;80.10;;;;;;6155008;23;19905;-89
2023/05/28 01:57:00;;;;;;;;;;;16.10;80.20;;;;;;6155685;23;19939;-90
2023/05/28 01:59:26;;;;;;;;;;;16.10;80.10;;;;;;6154958;23;19905;-89
2023/05/28 02:01:51;;;;;;;;;;;16.10;80.00;;;;;;6154849;23;19939;-90
2023/05/28 02:04:17;;;;;;;;;;;16.10;80.10;;;;;;6154902;23;19909;-89
2023/05/28 02:06:45;;;;;;;;;;;16.10;80.10;;;;;;6155587;23;19924;-89
2023/05/28 02:09:10;;;;;;;;;;;16.10;80.10;;;;;;6155958;23;19962;-90
2023/05/28 02:11:36;;;;;;;;;;;16.10;80.00;;;;;;6156258;23;19904;-89
2023/05/28 02:14:03;;;;;;;;;;;16.10;80.10;;;;;;6155221;23;20333;-90
2023/05/28 02:16:29;;;;;;;;;;;16.00;80.80;;;;;;6155000;23;19987;-89
2023/05/28 02:18:55;;;;;;;;;;;16.10;80.10;;;;;;6155042;23;20445;-89
2023/05/28 02:21:20;;;;;;;;;;;16.00;80.00;;;;;;6154473;23;19935;-90
2023/05/28 02:23:47;;;;;;;;;;;16.00;80.00;;;;;;6154436;23;20314;-89
2023/05/28 02:26:13;;;;;;;;;;;16.00;80.00;;;;;;6154240;23;19911;-89
2023/05/28 02:28:39;;;;;;;;;;;16.00;80.00;;;;;;6156401;23;20002;-89
2023/05/28 02:31:05;;;;;;;;;;;16.00;80.00;;;;;;6156077;23;19912;-90
2023/05/28 02:33:32;;;;;;;;;;;16.40;80.20;;;;;;6153490;23;19909;-89
2023/05/28 02:35:57;;;;;;;;;;;16.00;79.90;;;;;;6154770;23;20372;-89
2023/05/28 02:38:23;;;;;;;;;;;16.00;79.90;;;;;;6155187;23;19905;-89
2023/05/28 02:40:48;;;;;;;;;;;16.00;79.90;;;;;;6154487;23;19959;-89
2023/05/28 02:43:14;;;;;;;;;;;15.90;79.90;;;;;;6153588;23;19991;-89
2023/05/28 02:45:39;;;;;;;;;;;16.00;80.30;;;;;;6154948;23;20373;-89
2023/05/28 02:48:05;;;;;;;;;;;16.00;79.90;;;;;;6154982;23;19954;-89
2023/05/28 02:50:30;;;;;;;;;;;15.90;79.90;;;;;;6154838;23;19904;-90
2023/05/28 02:52:56;;;;;;;;;;;16.00;79.90;;;;;;6154708;23;20007;-89
2023/05/28 02:55:22;;;;;;;;;;;15.90;79.90;;;;;;6153319;23;19913;-89
2023/05/28 02:57:47;;;;;;;;;;;15.90;79.90;;;;;;6156240;23;20311;-89
2023/05/28 03:00:13;;;;;;;;;;;15.90;79.90;;;;;;6154936;23;19904;-90
2023/05/28 03:02:39;;;;;;;;;;;15.90;79.80;;;;;;6153759;23;19936;-90
2023/05/28 03:05:05;;;;;;;;;;;15.90;79.90;;;;;;6154124;23;19908;-89
2023/05/28 03:07:30;;;;;;;;;;;15.90;80.00;;;;;;6154716;23;20003;-90
2023/05/28 03:09:56;;;;;;;;;;;15.90;79.90;;;;;;6154507;23;19912;-90
2023/05/28 03:12:22;;;;;;;;;;;15.90;79.90;;;;;;6153540;23;19913;-89
2023/05/28 03:14:47;;;;;;;;;;;16.10;80.10;;;;;;6154054;23;19926;-89
2023/05/28 03:17:13;;;;;;;;;;;15.90;80.10;;;;;;6154392;23;20296;-90
2023/05/28 03:19:38;;;;;;;;;;;15.90;79.90;;;;;;6154792;23;19905;-89
2023/05/28 03:22:04;;;;;;;;;;;15.90;80.00;;;;;;6154453;23;19932;-89
2023/05/28 03:24:30;;;;;;;;;;;15.90;79.90;;;;;;6153724;23;19919;-90
2023/05/28 03:26:57;;;;;;;;;;;15.90;79.90;;;;;;6153888;23;19909;-89
2023/05/28 03:29:22;;;;;;;;;;;15.90;79.90;;;;;;6153662;23;19923;-90
2023/05/28 03:31:48;;;;;;;;;;;15.80;79.90;;;;;;6153954;23;19909;-89
2023/05/28 03:34:14;;;;;;;;;;;15.80;79.80;;;;;;6153391;23;19904;-90
2023/05/28 03:36:40;;;;;;;;;;;15.80;79.80;;;;;;6153394;23;19991;-89
2023/05/28 03:39:07;;;;;;;;;;;15.80;79.90;;;;;;6154319;23;19951;-89
2023/05/28 03:41:32;;;;;;;;;;;15.80;79.90;;;;;;6153531;23;19905;-90
2023/05/28 03:43:58;;;;;;;;;;;15.80;79.90;;;;;;6153815;23;19904;-89
2023/05/28 03:46:23;;;;;;;;;;;15.80;79.80;;;;;;6153572;23;19905;-89
2023/05/28 03:48:49;;;;;;;;;;;15.80;79.90;;;;;;6155309;23;19912;-89
2023/05/28 03:51:14;;;;;;;;;;;15.80;79.90;;;;;;6153769;23;19904;-90
2023/05/28 03:53:40;;;;;;;;;;;15.80;79.90;;;;;;6153537;23;19911;-90
2023/05/28 03:56:06;;;;;;;;;;;15.80;79.80;;;;;;6153546;23;20318;-90
2023/05/28 03:58:31;;;;;;;;;;;15.80;79.90;;;;;;6153812;23;19909;-90
2023/05/28 04:00:57;;;;;;;;;;;15.80;79.90;;;;;;6153677;23;20311;-90
2023/05/28 04:03:22;;;;;;;;;;;15.80;80.00;;;;;;6154291;23;20326;-89
2023/05/28 04:05:48;;;;;;;;;;;15.80;80.00;;;;;;6154545;23;20529;-89
2023/05/28 04:08:13;;;;;;;;;;;15.80;80.00;;;;;;6154061;23;19977;-89
2023/05/28 04:10:39;;;;;;;;;;;15.80;79.90;;;;;;6154386;23;19908;-89
2023/05/28 04:13:05;;;;;;;;;;;15.80;79.90;;;;;;6153846;23;19909;-89
2023/05/28 04:15:31;;;;;;;;;;;15.80;80.00;;;;;;6154282;23;19960;-90
2023/05/28 04:17:56;;;;;;;;;;;15.80;80.00;;;;;;6155804;23;19905;-90
2023/05/28 04:20:22;;;;;;;;;;;15.80;80.00;;;;;;6155515;23;19955;-90
2023/05/28 04:22:47;;;;;;;;;;;15.80;80.00;;;;;;6154638;23;20318;-89
2023/05/28 04:25:13;;;;;;;;;;;15.80;80.00;;;;;;6154230;23;19912;-89
2023/05/28 04:27:40;;;;;;;;;;;15.80;80.10;;;;;;6154576;23;19931;-89
2023/05/28 04:30:08;;;;;;;;;;;15.80;80.00;;;;;;6154278;23;20304;-89
2023/05/28 04:32:33;;;;;;;;;;;15.80;80.00;;;;;;6153944;23;19932;-90
2023/05/28 04:35:03;;;;;;;;;;;15.70;80.00;;;;;;6153268;23;19904;-89
2023/05/28 04:37:28;;;;;;;;;;;15.80;80.10;;;;;;6153191;23;19947;-89
2023/05/28 04:39:54;;;;;;;;;;;15.80;80.10;;;;;;6153064;23;20261;-90
2023/05/28 04:42:19;;;;;;;;;;;15.80;80.10;;;;;;6152965;23;19920;-90
2023/05/28 04:44:45;;;;;;;;;;;15.80;80.10;;;;;;6153201;23;19909;-89
2023/05/28 04:47:11;;;;;;;;;;;15.80;80.10;;;;;;6153863;23;19905;-89
2023/05/28 04:49:37;;;;;;;;;;;15.80;80.10;;;;;;6153597;23;19919;-89
2023/05/28 04:52:03;;;;;;;;;;;15.80;80.10;;;;;;6155313;23;20298;-90
2023/05/28 04:54:28;;;;;;;;;;;15.80;80.10;;;;;;6153138;23;20230;-89
2023/05/28 04:56:54;;;;;;;;;;;15.80;80.10;;;;;;6154704;23;19943;-89
2023/05/28 04:59:20;;;;;;;;;;;15.80;80.10;;;;;;6153623;23;19956;-89
2023/05/28 05:01:45;;;;;;;;;;;15.80;80.10;;;;;;6153403;23;19908;-90
2023/05/28 05:04:11;;;;;;;;;;;15.80;80.10;;;;;;6152914;23;19908;-89
2023/05/28 05:06:36;;;;;;;;;;;15.80;80.20;;;;;;6153329;23;19905;-90
2023/05/28 05:09:04;;;;;;;;;;;15.80;80.20;;;;;;6152980;23;19916;-90
2023/05/28 05:11:30;;;;;;;;;;;15.80;80.30;;;;;;6152536;23;19912;-90
2023/05/28 05:13:56;;;;;;;;;;;15.90;80.40;;;;;;6153437;23;19908;-90
2023/05/28 05:16:21;;;;;;;;;;;15.90;80.50;;;;;;6153028;23;20383;-90
2023/05/28 05:18:47;;;;;;;;;;;15.90;80.50;;;;;;6153758;23;19905;-90
2023/05/28 05:21:13;;;;;;;;;;;15.90;80.60;;;;;;6153917;23;19904;-90
2023/05/28 05:23:39;;;;;;;;;;;15.90;80.60;;;;;;6152857;23;19936;-89
2023/05/28 05:26:06;;;;;;;;;;;15.80;80.50;;;;;;6153086;23;19915;-89
2023/05/28 05:28:31;;;;;;;;;;;15.90;80.60;;;;;;6153420;23;19912;-89
2023/05/28 05:30:57;;;;;;;;;;;15.90;80.60;;;;;;6152593;23;20595;-89
2023/05/28 05:33:22;;;;;;;;;;;15.90;80.50;;;;;;6153261;23;19904;-90
2023/05/28 05:35:48;;;;;;;;;;;16.00;80.50;;;;;;6154801;23;19955;-90
2023/05/28 05:38:13;;;;;;;;;;;16.00;80.50;;;;;;6152981;23;19904;-90
2023/05/28 05:40:39;;;;;;;;;;;16.00;80.40;;;;;;6153122;23;19905;-89
2023/05/28 05:43:04;;;;;;;;;;;16.10;80.40;;;;;;6153362;23;19984;-90
2023/05/28 05:45:30;;;;;;;;;;;16.10;80.40;;;;;;6152940;23;19963;-90
2023/05/28 05:47:56;;;;;;;;;;;16.10;80.20;;;;;;6153518;23;20058;-91
2023/05/28 05:50:21;;;;;;;;;;;16.10;80.00;;;;;;6153438;23;19905;-90
2023/05/28 05:52:47;;;;;;;;;;;16.20;80.00;;;;;;6154349;23;19939;-90
2023/05/28 05:55:12;;;;;;;;;;;16.20;79.70;;;;;;6155026;23;20000;-90
2023/05/28 05:57:38;;;;;;;;;;;16.30;79.70;;;;;;6154402;23;19936;-90
2023/05/28 06:00:05;;;;;;;;;;;16.30;79.50;;;;;;6153961;23;19911;-90
2023/05/28 06:02:30;;;;;;;;;;;16.30;79.20;;;;;;6154744;23;19916;-91
2023/05/28 06:04:56;;;;;;;;;;;16.30;79.20;;;;;;6154967;23;19905;-90
2023/05/28 06:07:21;;;;;;;;;;;16.40;79.10;;;;;;6154986;23;19904;-90
2023/05/28 06:09:48;;;;;;;;;;;16.40;79.10;;;;;;6154875;23;19905;-90
2023/05/28 06:12:13;;;;;;;;;;;16.40;79.00;;;;;;6157737;23;19904;-91
2023/05/28 06:14:39;;;;;;;;;;;16.50;78.90;;;;;;6155064;23;19905;-90
2023/05/28 06:17:05;;;;;;;;;;;16.50;78.80;;;;;;6155829;23;19956;-90
2023/05/28 06:19:30;;;;;;;;;;;16.60;78.70;;;;;;6155450;23;19905;-90
2023/05/28 06:21:56;;;;;;;;;;;16.60;78.50;;;;;;6155348;23;20230;-91
2023/05/28 06:24:22;;;;;;;;;;;16.60;78.30;;;;;;6155235;23;19923;-91
2023/05/28 06:26:47;;;;;;;;;;;16.70;78.40;;;;;;6156154;23;19912;-90
2023/05/28 06:29:13;;;;;;;;;;;16.70;78.30;;;;;;6155514;23;19968;-91
2023/05/28 06:31:40;;;;;;;;;;;16.70;78.30;;;;;;6154935;23;20334;-91
2023/05/28 06:34:05;;;;;;;;;;;16.80;78.30;;;;;;6155223;23;19904;-91
2023/05/28 06:36:32;;;;;;;;;;;16.80;78.30;;;;;;6154309;23;20226;-91
2023/05/28 06:38:57;;;;;;;;;;;16.90;78.10;;;;;;6154988;23;20237;-90
2023/05/28 06:41:23;;;;;;;;;;;16.90;78.20;;;;;;6154487;23;19940;-91
2023/05/28 06:43:48;;;;;;;;;;;16.90;78.10;;;;;;6154956;23;20569;-90
2023/05/28 06:46:14;;;;;;;;;;;17.00;78.00;;;;;;6154239;23;19905;-91
2023/05/28 06:48:39;;;;;;;;;;;17.00;77.90;;;;;;6153626;23;19917;-91
2023/05/28 06:51:05;;;;;;;;;;;17.10;77.80;;;;;;6154716;23;20051;-91
2023/05/28 06:53:30;;;;;;;;;;;17.10;77.80;;;;;;6155114;23;19904;-89
2023/05/28 06:55:56;;;;;;;;;;;17.10;77.60;;;;;;6154610;23;20299;-91
2023/05/28 06:58:22;;;;;;;;;;;17.20;77.60;;;;;;6153997;23;19936;-91
2023/05/28 07:00:47;;;;;;;;;;;17.20;77.50;;;;;;6154308;23;19908;-91
2023/05/28 07:03:13;;;;;;;;;;;17.20;77.30;;;;;;6153942;23;19904;-90
2023/05/28 07:05:38;;;;;;;;;;;17.30;77.30;;;;;;6154283;23;19928;-91
2023/05/28 07:08:04;;;;;;;;;;;17.30;77.20;;;;;;6154463;23;19916;-91
2023/05/28 07:10:30;;;;;;;;;;;17.30;77.10;;;;;;6154225;23;19932;-91
2023/05/28 07:12:55;;;;;;;;;;;17.40;76.90;;;;;;6153989;23;19908;-91
2023/05/28 07:15:21;;;;;;;;;;;17.40;76.90;;;;;;6154548;23;19908;-91
2023/05/28 07:17:47;;;;;;;;;;;17.40;76.80;;;;;;6154645;23;19930;-91
2023/05/28 07:20:13;;;;;;;;;;;17.50;76.70;;;;;;6155687;23;19931;-92
2023/05/28 07:22:39;;;;;;;;;;;17.50;76.60;;;;;;6154748;23;19905;-91
2023/05/28 07:25:05;;;;;;;;;;;17.60;76.50;;;;;;6155948;23;19920;-91
2023/05/28 07:27:31;;;;;;;;;;;17.60;76.40;;;;;;6155774;23;19904;-91
2023/05/28 07:29:56;;;;;;;;;;;17.60;76.30;;;;;;6157062;23;19932;-91
2023/05/28 07:32:22;;;;;;;;;;;17.60;76.30;;;;;;6155760;23;20307;-91
2023/05/28 07:34:47;;;;;;;;;;;17.70;76.30;;;;;;6154798;23;19909;-91
2023/05/28 07:37:13;;;;;;;;;;;17.70;76.20;;;;;;6154702;23;19936;-91
2023/05/28 07:39:38;;;;;;;;;;;17.70;76.00;;;;;;6154285;23;19959;-93
2023/05/28 07:42:06;;;;;;;;;;;17.80;76.00;;;;;;6155814;23;19936;-91
2023/05/28 07:44:32;;;;;;;;;;;17.80;75.80;;;;;;6154389;23;19915;-91
2023/05/28 07:46:57;;;;;;;;;;;17.90;75.70;;;;;;6154533;23;19932;-92
2023/05/28 07:49:23;;;;;;;;;;;17.90;75.40;;;;;;6154210;23;19912;-91
2023/05/28 07:51:48;;;;;;;;;;;18.00;75.30;;;;;;6154292;23;19911;-92
2023/05/28 07:54:14;;;;;;;;;;;18.00;75.20;;;;;;6153868;23;19904;-92
2023/05/28 07:56:40;;;;;;;;;;;18.00;74.90;;;;;;6154361;23;20023;-92
2023/05/28 07:59:06;;;;;;;;;;;18.10;74.80;;;;;;6153870;23;19908;-92
2023/05/28 08:01:32;;;;;;;;;;;18.10;74.60;;;;;;6154135;23;19908;-91
2023/05/28 08:03:57;;;;;;;;;;;18.10;74.40;;;;;;6154393;23;19936;-92
2023/05/28 08:06:23;;;;;;;;;;;18.20;74.40;;;;;;6154597;23;20337;-92
2023/05/28 08:08:48;;;;;;;;;;;18.20;74.30;;;;;;6153523;23;19913;-92
2023/05/28 08:11:14;;;;;;;;;;;18.20;74.90;;;;;;6155899;23;19911;-92
2023/05/28 08:13:43;;;;;;;;;;;18.30;74.10;;;;;;6152866;23;19916;-92
2023/05/28 08:16:12;;;;;;;;;;;18.30;74.00;;;;;;6153283;23;19957;-92
2023/05/28 08:18:38;;;;;;;;;;;18.30;74.00;;;;;;6153942;23;19904;-92
2023/05/28 08:21:05;;;;;;;;;;;18.40;74.00;;;;;;6154283;23;19996;-92
2023/05/28 08:23:34;;;;;;;;;;;18.40;73.80;;;;;;6153706;23;19909;-92
2023/05/28 08:26:02;;;;;;;;;;;18.40;73.70;;;;;;6153880;23;19919;-92
2023/05/28 08:28:31;;;;;;;;;;;18.40;73.50;;;;;;6153693;23;19920;-92
2023/05/28 08:30:56;;;;;;;;;;;18.50;73.40;;;;;;6153848;23;19909;-92
2023/05/28 08:33:22;;;;;;;;;;;18.50;73.40;;;;;;6153460;23;19987;-93
2023/05/28 08:35:48;;;;;;;;;;;18.50;73.40;;;;;;6153422;23;20509;-93
2023/05/28 08:38:13;;;;;;;;;;;18.50;74.00;;;;;;6153691;23;19905;-92
2023/05/28 08:40:43;;;;;;;;;;;18.60;73.30;;;;;;6153491;23;20274;-92
2023/05/28 08:43:11;;;;;;;;;;;18.60;73.10;;;;;;6153634;23;19992;-92
2023/05/28 08:45:37;;;;;;;;;;;18.60;73.20;;;;;;6153184;23;19928;-92
2023/05/28 08:48:04;;;;;;;;;;;18.60;73.30;;;;;;6154770;23;20465;-92
2023/05/28 08:50:30;;;;;;;;;;;18.60;73.10;;;;;;6153903;23;19952;-94
2023/05/28 08:52:57;;;;;;;;;;;18.60;73.20;;;;;;6153956;23;19909;-93
2023/05/28 08:55:22;;;;;;;;;;;18.70;73.00;;;;;;6154249;23;19908;-93
2023/05/28 08:57:48;;;;;;;;;;;18.70;72.90;;;;;;6154564;23;19905;-96
2023/05/28 09:00:14;;;;;;;;;;;18.70;72.80;;;;;;6153344;23;19983;-94
2023/05/28 09:02:39;;;;;;;;;;;18.80;72.70;;;;;;6152762;23;20392;-94
2023/05/28 09:05:05;;;;;;;;;;;18.80;72.60;;;;;;6153910;23;19904;-95
2023/05/28 09:07:32;;;;;;;;;;;18.80;72.20;;;;;;6153009;23;19904;-95
2023/05/28 09:09:58;;;;;;;;;;;18.80;72.20;;;;;;6153058;23;19908;-95
2023/05/28 09:12:24;;;;;;;;;;;18.80;72.20;;;;;;6154411;23;19916;-96
2023/05/28 09:14:52;;;;;;;;;;;18.80;72.00;;;;;;6152690;23;19912;-95
2023/05/28 09:17:31;;;;;;;;;;;18.90;72.10;;;;;;6153837;23;20300;-93
2023/05/28 09:19:59;;;;;;;;;;;18.80;71.80;;;;;;6153413;23;19932;-94
2023/05/28 09:22:26;;;;;;;;;;;18.90;71.80;;;;;;6153097;23;19912;-95
2023/05/28 09:24:54;;;;;;;;;;;18.80;71.70;;;;;;6151421;23;19940;-95
2023/05/28 09:27:21;;;;;;;;;;;18.90;71.70;;;;;;6154026;23;19912;-93
2023/05/28 09:29:47;;;;;;;;;;;18.90;71.70;;;;;;6154809;23;19913;-94
2023/05/28 09:32:17;;;;;;;;;;;18.90;71.80;;;;;;6155088;23;20292;-93
2023/05/28 09:34:43;;;;;;;;;;;18.90;71.60;;;;;;6155185;23;20305;-95
2023/05/28 09:37:08;;;;;;;;;;;18.90;71.70;;;;;;6155121;23;19952;-94
2023/05/28 09:39:34;;;;;;;;;;;18.90;71.60;;;;;;6155846;23;19936;-93
2023/05/28 09:42:03;;;;;;;;;;;18.90;71.60;;;;;;6155050;23;19908;-93
2023/05/28 09:44:32;;;;;;;;;;;18.90;71.60;;;;;;6155307;23;19911;-93
2023/05/28 09:46:58;;;;;;;;;;;18.90;71.50;;;;;;6155271;23;19939;-94
2023/05/28 09:49:27;;;;;;;;;;;19.00;71.50;;;;;;6155365;23;19970;-96
2023/05/28 09:51:56;;;;;;;;;;;19.00;71.20;;;;;;6154490;23;19909;-93
2023/05/28 09:54:22;;;;;;;;;;;19.00;71.00;;;;;;6155142;23;19905;-94
2023/05/28 09:56:50;;;;;;;;;;;19.00;70.80;;;;;;6155128;23;19904;-94
2023/05/28 09:59:17;;;;;;;;;;;18.90;70.60;;;;;;6131449;23;20440;-96
2023/05/28 10:02:06;;;;;;;;;;;19.00;71.40;;;;;;6155438;23;19904;-94
2023/05/28 10:04:34;;;;;;;;;;;19.00;70.60;;;;;;6119437;23;19959;-96
2023/05/28 10:07:00;;;;;;;;;;;19.00;70.40;;;;;;6154773;23;20203;-94
2023/05/28 10:09:26;;;;;;;;;;;19.00;70.20;;;;;;6155184;23;19920;-93
2023/05/28 10:12:14;;;;;;;;;;;19.00;70.20;;;;;;6154570;23;19904;-96
2023/05/28 10:14:39;;;;;;;;;;;19.00;70.40;;;;;;6154521;23;19911;-96
2023/05/28 10:17:07;;;;;;;;;;;19.00;70.40;;;;;;6154923;23;20643;-93
2023/05/28 10:19:33;;;;;;;;;;;19.00;70.10;;;;;;6155369;23;19904;-95
2023/05/28 10:21:59;;;;;;;;;;;19.00;69.70;;;;;;6154620;23;19962;-93
2023/05/28 10:24:25;;;;;;;;;;;19.00;70.10;;;;;;6154341;23;19920;-95
2023/05/28 10:26:52;;;;;;;;;;;18.90;70.30;;;;;;6155121;23;20333;-95
2023/05/28 10:29:18;;;;;;;;;;;18.90;70.40;;;;;;6155517;23;20331;-96
2023/05/28 10:31:43;;;;;;;;;;;18.90;70.00;;;;;;6154546;23;19905;-94
2023/05/28 10:34:15;;;;;;;;;;;18.90;70.00;;;;;;6154342;23;19908;-96
2023/05/28 10:36:53;;;;;;;;;;;18.80;70.00;;;;;;6154131;23;19991;-94
2023/05/28 10:39:18;;;;;;;;;;;18.80;70.20;;;;;;6154433;23;19905;-95
2023/05/28 10:41:44;;;;;;;;;;;18.70;70.00;;;;;;6155025;23;19905;-95
2023/05/28 10:44:10;;;;;;;;;;;18.70;69.90;;;;;;6155226;23;20306;-93
2023/05/28 10:46:37;;;;;;;;;;;18.70;70.10;;;;;;6154919;23;19908;-94
2023/05/28 10:49:08;;;;;;;;;;;18.70;70.30;;;;;;6154897;23;19948;-96
2023/05/28 10:51:44;;;;;;;;;;;18.60;70.30;;;;;;6156489;23;19956;-94
2023/05/28 10:54:23;;;;;;;;;;;18.60;70.00;;;;;;6155696;23;19905;-96
2023/05/28 10:57:15;;;;;;;;;;;18.50;70.00;;;;;;6131357;23;19908;-96
2023/05/28 10:59:47;;;;;;;;;;;18.60;70.00;;;;;;6149134;23;20314;-94
2023/05/28 11:02:16;;;;;;;;;;;18.50;69.90;;;;;;6155031;23;20418;-92
2023/05/28 11:04:42;;;;;;;;;;;18.50;70.30;;;;;;6156624;23;19905;-94
2023/05/28 11:07:08;;;;;;;;;;;18.50;70.20;;;;;;6155875;23;19936;-94
2023/05/28 11:09:34;;;;;;;;;;;18.50;70.10;;;;;;6157504;23;19936;-96
2023/05/28 11:12:01;;;;;;;;;;;18.40;70.00;;;;;;6156346;23;19988;-91
2023/05/28 11:14:34;;;;;;;;;;;18.40;71.20;;;;;;6155316;23;19905;-93
2023/05/28 11:17:00;;;;;;;;;;;18.40;70.50;;;;;;6156089;23;19908;-92
2023/05/28 11:19:25;;;;;;;;;;;18.40;70.40;;;;;;6155744;23;19905;-93
2023/05/28 11:21:55;;;;;;;;;;;18.40;70.70;;;;;;6156014;23;19912;-92
2023/05/28 11:24:21;;;;;;;;;;;18.30;70.20;;;;;;6155907;23;20323;-95
2023/05/28 11:26:46;;;;;;;;;;;18.30;70.30;;;;;;6155597;23;19943;-94
2023/05/28 11:29:13;;;;;;;;;;;18.30;70.80;;;;;;6156117;23;19912;-95
2023/05/28 11:31:41;;;;;;;;;;;18.30;70.70;;;;;;6156368;23;19904;-92
2023/05/28 11:34:07;;;;;;;;;;;18.20;70.60;;;;;;6156167;23;19905;-94
2023/05/28 11:36:39;;;;;;;;;;;18.20;70.70;;;;;;6155482;23;19905;-92
2023/05/28 11:39:06;;;;;;;;;;;18.20;70.60;;;;;;6156050;23;19911;-93
2023/05/28 11:41:31;;;;;;;;;;;18.20;70.80;;;;;;6156366;23;19932;-91
2023/05/28 11:43:57;;;;;;;;;;;18.20;70.70;;;;;;6155634;23;19905;-91
2023/05/28 11:46:22;;;;;;;;;;;18.20;70.70;;;;;;6155992;23;19915;-94
2023/05/28 11:48:50;;;;;;;;;;;18.10;70.70;;;;;;6155811;23;19952;-94
2023/05/28 11:51:19;;;;;;;;;;;18.10;70.90;;;;;;6156157;23;19905;-91
2023/05/28 11:53:45;;;;;;;;;;;18.10;71.00;;;;;;6155592;23;19905;-89
2023/05/28 11:56:11;;;;;;;;;;;18.10;71.00;;;;;;6155275;23;19960;-93
2023/05/28 11:58:39;;;;;;;;;;;18.10;71.20;;;;;;6155118;23;19987;-91
2023/05/28 12:01:05;;;;;;;;;;;18.10;71.20;;;;;;6154785;23;19906;-94
2023/05/28 12:03:31;;;;;;;;;;;18.10;71.20;;;;;;6155057;23;19943;-90
2023/05/28 12:05:56;;;;;;;;;;;18.10;71.20;;;;;;6154981;23;20258;-93
2023/05/28 12:08:22;;;;;;;;;;;18.10;70.90;;;;;;6130394;23;19967;-93
2023/05/28 12:10:47;;;;;;;;;;;18.10;71.30;;;;;;6155250;23;19952;-91
2023/05/28 12:13:13;;;;;;;;;;;18.10;71.20;;;;;;6155261;23;19931;-91
2023/05/28 12:15:39;;;;;;;;;;;18.10;71.00;;;;;;6155391;23;20199;-93
2023/05/28 12:18:06;;;;;;;;;;;18.00;71.20;;;;;;6157138;23;19913;-91
2023/05/28 12:20:33;;;;;;;;;;;18.00;71.20;;;;;;6156424;23;19908;-90
2023/05/28 12:23:08;;;;;;;;;;;18.00;71.10;;;;;;6156129;23;19905;-92
2023/05/28 12:25:43;;;;;;;;;;;18.00;71.20;;;;;;6155549;23;19992;-92
2023/05/28 12:28:09;;;;;;;;;;;18.00;71.30;;;;;;6154788;23;19913;-92
2023/05/28 12:30:35;;;;;;;;;;;18.00;71.10;;;;;;6154374;23;19988;-92
2023/05/28 12:33:01;;;;;;;;;;;18.00;71.20;;;;;;6154294;23;19911;-91
2023/05/28 12:35:27;;;;;;;;;;;18.00;70.90;;;;;;6153900;23;19952;-91
2023/05/28 12:37:53;;;;;;;;;;;18.00;71.30;;;;;;6154199;23;19905;-92
2023/05/28 12:40:18;;;;;;;;;;;18.00;71.10;;;;;;6154098;23;19980;-92
2023/05/28 12:42:44;;;;;;;;;;;17.90;70.90;;;;;;6154289;23;20328;-94
2023/05/28 12:45:09;;;;;;;;;;;17.90;71.00;;;;;;6153857;23;19983;-92
2023/05/28 12:47:35;;;;;;;;;;;17.90;71.20;;;;;;6154466;23;19915;-92
2023/05/28 12:50:00;;;;;;;;;;;18.00;70.90;;;;;;6154274;23;19951;-93
2023/05/28 12:52:26;;;;;;;;;;;17.90;70.90;;;;;;6155458;23;19909;-92
2023/05/28 12:54:51;;;;;;;;;;;17.90;70.80;;;;;;6155183;23;19911;-93
2023/05/28 12:57:17;;;;;;;;;;;17.90;70.90;;;;;;6155564;23;19908;-92
2023/05/28 12:59:42;;;;;;;;;;;17.90;70.70;;;;;;6155297;23;20314;-92
2023/05/28 13:02:08;;;;;;;;;;;17.90;70.90;;;;;;6155485;23;19983;-93
2023/05/28 13:04:33;;;;;;;;;;;17.90;70.80;;;;;;6156383;23;19936;-94
2023/05/28 13:06:59;;;;;;;;;;;17.90;70.50;;;;;;6155674;23;19951;-93
2023/05/28 13:09:25;;;;;;;;;;;17.90;71.40;;;;;;6155480;23;19916;-92
2023/05/28 13:11:51;;;;;;;;;;;17.90;70.70;;;;;;6154894;23;19904;-92
2023/05/28 13:14:16;;;;;;;;;;;17.90;70.50;;;;;;6156337;23;20318;-92
2023/05/28 13:16:42;;;;;;;;;;;17.80;70.10;;;;;;6154890;23;20599;-92
2023/05/28 13:19:07;;;;;;;;;;;17.90;70.30;;;;;;6155381;23;20207;-94
2023/05/28 13:21:35;;;;;;;;;;;17.90;70.80;;;;;;6155259;23;19905;-93
2023/05/28 13:24:01;;;;;;;;;;;17.90;70.70;;;;;;6154825;23;19920;-94
2023/05/28 13:26:27;;;;;;;;;;;17.80;71.40;;;;;;6156111;23;19929;-92
2023/05/28 13:28:52;;;;;;;;;;;17.80;70.80;;;;;;6154743;23;19923;-92
2023/05/28 13:31:18;;;;;;;;;;;17.80;70.50;;;;;;6157204;23;19905;-92
2023/05/28 13:33:44;;;;;;;;;;;17.80;70.50;;;;;;6156052;23;19916;-93
2023/05/28 13:36:10;;;;;;;;;;;17.80;70.40;;;;;;6155832;23;19983;-93
2023/05/28 13:38:35;;;;;;;;;;;17.80;70.60;;;;;;6155150;23;19933;-91
2023/05/28 13:41:02;;;;;;;;;;;17.80;70.70;;;;;;6155217;23;19912;-94
2023/05/28 13:43:29;;;;;;;;;;;17.80;70.40;;;;;;6155777;23;20170;-93
2023/05/28 13:45:54;;;;;;;;;;;17.80;70.40;;;;;;6156598;23;19967;-96
2023/05/28 13:48:20;;;;;;;;;;;17.70;70.20;;;;;;6156389;23;20219;-93
2023/05/28 13:50:46;;;;;;;;;;;17.80;70.40;;;;;;6155528;23;19909;-95
2023/05/28 13:53:11;;;;;;;;;;;17.80;70.30;;;;;;6155415;23;19987;-93
2023/05/28 13:55:37;;;;;;;;;;;17.80;70.60;;;;;;6155461;23;19905;-95
2023/05/28 13:58:02;;;;;;;;;;;17.80;70.20;;;;;;6154929;23;19909;-94
2023/05/28 14:00:28;;;;;;;;;;;17.80;70.30;;;;;;6154821;23;19908;-94
2023/05/28 14:02:53;;;;;;;;;;;17.80;70.10;;;;;;6154889;23;19905;-94
2023/05/28 14:05:19;;;;;;;;;;;17.70;69.90;;;;;;6155283;23;19956;-94
2023/05/28 14:07:44;;;;;;;;;;;17.70;69.50;;;;;;6155313;23;19987;-94
2023/05/28 14:10:10;;;;;;;;;;;17.70;69.80;;;;;;6154570;23;19975;-94
2023/05/28 14:12:39;;;;;;;;;;;17.70;69.60;;;;;;6154447;23;19904;-94